<?xml version="1.0" encoding="UTF-8" standalone="no" ?><gpx xmlns="http://www.topografix.com/GPX/1/1" xmlns:gpxx="http://www.garmin.com/xmlschemas/GpxExtensions/v3" xmlns:wptx1="http://www.garmin.com/xmlschemas/WaypointExtension/v1" xmlns:gpxtpx="http://www.garmin.com/xmlschemas/TrackPointExtension/v1" creator="GuideVTT.com" version="1.1" xmlns:xsi="http://www.w3.org/2001/XMLSchema-instance" xsi:schemaLocation="http://www.topografix.com/GPX/1/1 http://www.topografix.com/GPX/1/1/gpx.xsd http://www.garmin.com/xmlschemas/GpxExtensions/v3 http://www8.garmin.com/xmlschemas/GpxExtensionsv3.xsd http://www.garmin.com/xmlschemas/WaypointExtension/v1 http://www8.garmin.com/xmlschemas/WaypointExtensionv1.xsd http://www.garmin.com/xmlschemas/TrackPointExtension/v1 http://www.garmin.com/xmlschemas/TrackPointExtensionv1.xsd">
<metadata><link href="http://www.garmin.com"><text>Garmin International</text></link><time>2013-06-22T15:13:50Z</time></metadata>
<trk><name>evees.gpx</name><extensions><gpxx:TrackExtension><gpxx:DisplayColor>Cyan</gpxx:DisplayColor></gpxx:TrackExtension></extensions><trkseg>
<trkpt lat="48.46279600" lon="2.66555800"><ele>89</ele><time>2007-08-18T06:38:47Z</time></trkpt>
<trkpt lat="48.46281800" lon="2.66542900"><ele>92</ele><time>2007-08-18T06:39:23Z</time></trkpt>
<trkpt lat="48.46273200" lon="2.66510700"><ele>93</ele><time>2007-08-18T06:39:45Z</time></trkpt>
<trkpt lat="48.46271000" lon="2.66493600"><ele>93</ele><time>2007-08-18T06:40:00Z</time></trkpt>
<trkpt lat="48.46273200" lon="2.66491400"><ele>91</ele><time>2007-08-18T06:40:03Z</time></trkpt>
<trkpt lat="48.46279600" lon="2.66463500"><ele>88</ele><time>2007-08-18T06:40:21Z</time></trkpt>
<trkpt lat="48.46281800" lon="2.66452800"><ele>83</ele><time>2007-08-18T06:40:34Z</time></trkpt>
<trkpt lat="48.46281800" lon="2.66439900"><ele>84</ele><time>2007-08-18T06:40:43Z</time></trkpt>
<trkpt lat="48.46286100" lon="2.66431300"><ele>87</ele><time>2007-08-18T06:40:51Z</time></trkpt>
<trkpt lat="48.46290400" lon="2.66427000"><ele>85</ele><time>2007-08-18T06:40:55Z</time></trkpt>
<trkpt lat="48.46301100" lon="2.66416300"><ele>87</ele><time>2007-08-18T06:41:16Z</time></trkpt>
<trkpt lat="48.46301100" lon="2.66414200"><ele>88</ele><time>2007-08-18T06:41:17Z</time></trkpt>
<trkpt lat="48.46320400" lon="2.66394900"><ele>89</ele><time>2007-08-18T06:41:35Z</time></trkpt>
<trkpt lat="48.46326800" lon="2.66382000"><ele>91</ele><time>2007-08-18T06:41:55Z</time></trkpt>
<trkpt lat="48.46335400" lon="2.66354100"><ele>89</ele><time>2007-08-18T06:42:15Z</time></trkpt>
<trkpt lat="48.46333300" lon="2.66341200"><ele>88</ele><time>2007-08-18T06:42:22Z</time></trkpt>
<trkpt lat="48.46324700" lon="2.66334800"><ele>88</ele><time>2007-08-18T06:42:38Z</time></trkpt>
<trkpt lat="48.46318200" lon="2.66319700"><ele>91</ele><time>2007-08-18T06:42:58Z</time></trkpt>
<trkpt lat="48.46320400" lon="2.66311200"><ele>95</ele><time>2007-08-18T06:43:36Z</time></trkpt>
<trkpt lat="48.46318200" lon="2.66306900"><ele>95</ele><time>2007-08-18T06:43:39Z</time></trkpt>
<trkpt lat="48.46311800" lon="2.66304700"><ele>98</ele><time>2007-08-18T06:43:50Z</time></trkpt>
<trkpt lat="48.46307500" lon="2.66298300"><ele>98</ele><time>2007-08-18T06:43:56Z</time></trkpt>
<trkpt lat="48.46307500" lon="2.66289700"><ele>97</ele><time>2007-08-18T06:44:01Z</time></trkpt>
<trkpt lat="48.46313900" lon="2.66274700"><ele>98</ele><time>2007-08-18T06:44:11Z</time></trkpt>
<trkpt lat="48.46316100" lon="2.66274700"><ele>97</ele><time>2007-08-18T06:44:14Z</time></trkpt>
<trkpt lat="48.46320400" lon="2.66279000"><ele>96</ele><time>2007-08-18T06:44:19Z</time></trkpt>
<trkpt lat="48.46324700" lon="2.66283300"><ele>94</ele><time>2007-08-18T06:44:24Z</time></trkpt>
<trkpt lat="48.46331100" lon="2.66279000"><ele>94</ele><time>2007-08-18T06:44:30Z</time></trkpt>
<trkpt lat="48.46333300" lon="2.66266100"><ele>93</ele><time>2007-08-18T06:44:42Z</time></trkpt>
<trkpt lat="48.46333300" lon="2.66266100"><ele>96</ele><time>2007-08-18T06:44:47Z</time></trkpt>
<trkpt lat="48.46335400" lon="2.66259700"><ele>96</ele><time>2007-08-18T06:44:51Z</time></trkpt>
<trkpt lat="48.46333300" lon="2.66240400"><ele>94</ele><time>2007-08-18T06:45:00Z</time></trkpt>
<trkpt lat="48.46335400" lon="2.66236100"><ele>94</ele><time>2007-08-18T06:45:04Z</time></trkpt>
<trkpt lat="48.46335400" lon="2.66227500"><ele>95</ele><time>2007-08-18T06:45:18Z</time></trkpt>
<trkpt lat="48.46329000" lon="2.66218900"><ele>95</ele><time>2007-08-18T06:45:24Z</time></trkpt>
<trkpt lat="48.46324700" lon="2.66218900"><ele>96</ele><time>2007-08-18T06:45:28Z</time></trkpt>
<trkpt lat="48.46322500" lon="2.66225300"><ele>96</ele><time>2007-08-18T06:45:32Z</time></trkpt>
<trkpt lat="48.46313900" lon="2.66238200"><ele>96</ele><time>2007-08-18T06:45:40Z</time></trkpt>
<trkpt lat="48.46305400" lon="2.66236100"><ele>98</ele><time>2007-08-18T06:45:53Z</time></trkpt>
<trkpt lat="48.46305400" lon="2.66231800"><ele>98</ele><time>2007-08-18T06:45:56Z</time></trkpt>
<trkpt lat="48.46292500" lon="2.66216700"><ele>99</ele><time>2007-08-18T06:46:10Z</time></trkpt>
<trkpt lat="48.46286100" lon="2.66216700"><ele>99</ele><time>2007-08-18T06:46:15Z</time></trkpt>
<trkpt lat="48.46279600" lon="2.66210300"><ele>100</ele><time>2007-08-18T06:46:30Z</time></trkpt>
<trkpt lat="48.46275300" lon="2.66210300"><ele>99</ele><time>2007-08-18T06:46:34Z</time></trkpt>
<trkpt lat="48.46271000" lon="2.66203900"><ele>100</ele><time>2007-08-18T06:46:44Z</time></trkpt>
<trkpt lat="48.46275300" lon="2.66184600"><ele>99</ele><time>2007-08-18T06:46:59Z</time></trkpt>
<trkpt lat="48.46292500" lon="2.66156700"><ele>99</ele><time>2007-08-18T06:47:16Z</time></trkpt>
<trkpt lat="48.46294600" lon="2.66152400"><ele>100</ele><time>2007-08-18T06:47:20Z</time></trkpt>
<trkpt lat="48.46292500" lon="2.66135200"><ele>95</ele><time>2007-08-18T06:47:29Z</time></trkpt>
<trkpt lat="48.46283900" lon="2.66100900"><ele>94</ele><time>2007-08-18T06:47:50Z</time></trkpt>
<trkpt lat="48.46273200" lon="2.66109500"><ele>95</ele><time>2007-08-18T06:48:13Z</time></trkpt>
<trkpt lat="48.46271000" lon="2.66111600"><ele>95</ele><time>2007-08-18T06:48:16Z</time></trkpt>
<trkpt lat="48.46258200" lon="2.66130900"><ele>96</ele><time>2007-08-18T06:48:34Z</time></trkpt>
<trkpt lat="48.46243100" lon="2.66126600"><ele>94</ele><time>2007-08-18T06:48:48Z</time></trkpt>
<trkpt lat="48.46234600" lon="2.66122300"><ele>93</ele><time>2007-08-18T06:48:53Z</time></trkpt>
<trkpt lat="48.46202400" lon="2.66083700"><ele>93</ele><time>2007-08-18T06:49:17Z</time></trkpt>
<trkpt lat="48.46191600" lon="2.66058000"><ele>94</ele><time>2007-08-18T06:49:38Z</time></trkpt>
<trkpt lat="48.46213100" lon="2.66038700"><ele>97</ele><time>2007-08-18T06:50:00Z</time></trkpt>
<trkpt lat="48.46232400" lon="2.66025800"><ele>94</ele><time>2007-08-18T06:50:24Z</time></trkpt>
<trkpt lat="48.46247400" lon="2.66017200"><ele>91</ele><time>2007-08-18T06:50:41Z</time></trkpt>
<trkpt lat="48.46273200" lon="2.65991500"><ele>90</ele><time>2007-08-18T06:51:01Z</time></trkpt>
<trkpt lat="48.46311800" lon="2.65967900"><ele>92</ele><time>2007-08-18T06:51:23Z</time></trkpt>
<trkpt lat="48.46335400" lon="2.65940000"><ele>94</ele><time>2007-08-18T06:51:45Z</time></trkpt>
<trkpt lat="48.46376200" lon="2.65914200"><ele>97</ele><time>2007-08-18T06:52:07Z</time></trkpt>
<trkpt lat="48.46406200" lon="2.65879900"><ele>95</ele><time>2007-08-18T06:52:28Z</time></trkpt>
<trkpt lat="48.46423400" lon="2.65862700"><ele>94</ele><time>2007-08-18T06:52:39Z</time></trkpt>
<trkpt lat="48.46427700" lon="2.65858400"><ele>95</ele><time>2007-08-18T06:52:42Z</time></trkpt>
<trkpt lat="48.46457700" lon="2.65845500"><ele>91</ele><time>2007-08-18T06:53:07Z</time></trkpt>
<trkpt lat="48.46474900" lon="2.65852000"><ele>82</ele><time>2007-08-18T06:53:51Z</time></trkpt>
<trkpt lat="48.46477000" lon="2.65854100"><ele>78</ele><time>2007-08-18T06:53:53Z</time></trkpt>
<trkpt lat="48.46496300" lon="2.65845500"><ele>85</ele><time>2007-08-18T06:54:15Z</time></trkpt>
<trkpt lat="48.46500600" lon="2.65849800"><ele>95</ele><time>2007-08-18T06:54:38Z</time></trkpt>
<trkpt lat="48.46535000" lon="2.65839100"><ele>93</ele><time>2007-08-18T06:55:04Z</time></trkpt>
<trkpt lat="48.46586500" lon="2.65832700"><ele>98</ele><time>2007-08-18T06:55:32Z</time></trkpt>
<trkpt lat="48.46622900" lon="2.65830500"><ele>95</ele><time>2007-08-18T06:55:55Z</time></trkpt>
<trkpt lat="48.46661600" lon="2.65839100"><ele>94</ele><time>2007-08-18T06:56:18Z</time></trkpt>
<trkpt lat="48.46668000" lon="2.65839100"><ele>94</ele><time>2007-08-18T06:56:22Z</time></trkpt>
<trkpt lat="48.46676600" lon="2.65832700"><ele>94</ele><time>2007-08-18T06:56:29Z</time></trkpt>
<trkpt lat="48.46687300" lon="2.65832700"><ele>95</ele><time>2007-08-18T06:56:41Z</time></trkpt>
<trkpt lat="48.46691600" lon="2.65830500"><ele>96</ele><time>2007-08-18T06:56:44Z</time></trkpt>
<trkpt lat="48.46730200" lon="2.65826200"><ele>97</ele><time>2007-08-18T06:57:08Z</time></trkpt>
<trkpt lat="48.46756000" lon="2.65826200"><ele>92</ele><time>2007-08-18T06:57:30Z</time></trkpt>
<trkpt lat="48.46762400" lon="2.65826200"><ele>92</ele><time>2007-08-18T06:57:35Z</time></trkpt>
<trkpt lat="48.46794600" lon="2.65832700"><ele>92</ele><time>2007-08-18T06:57:53Z</time></trkpt>
<trkpt lat="48.46833200" lon="2.65845500"><ele>90</ele><time>2007-08-18T06:58:14Z</time></trkpt>
<trkpt lat="48.46867600" lon="2.65858400"><ele>88</ele><time>2007-08-18T06:58:38Z</time></trkpt>
<trkpt lat="48.46895500" lon="2.65871300"><ele>87</ele><time>2007-08-18T06:58:57Z</time></trkpt>
<trkpt lat="48.46936200" lon="2.65875600"><ele>89</ele><time>2007-08-18T06:59:18Z</time></trkpt>
<trkpt lat="48.46951300" lon="2.65873400"><ele>78</ele><time>2007-08-18T06:59:35Z</time></trkpt>
<trkpt lat="48.46977000" lon="2.65875600"><ele>81</ele><time>2007-08-18T06:59:52Z</time></trkpt>
<trkpt lat="48.46989900" lon="2.65879900"><ele>65</ele><time>2007-08-18T07:00:10Z</time></trkpt>
<trkpt lat="48.46987700" lon="2.65888500"><ele>57</ele><time>2007-08-18T07:00:29Z</time></trkpt>
<trkpt lat="48.47002700" lon="2.65888500"><ele>69</ele><time>2007-08-18T07:00:38Z</time></trkpt>
<trkpt lat="48.47037100" lon="2.65886300"><ele>71</ele><time>2007-08-18T07:01:01Z</time></trkpt>
<trkpt lat="48.47082100" lon="2.65888500"><ele>72</ele><time>2007-08-18T07:01:25Z</time></trkpt>
<trkpt lat="48.47097200" lon="2.65888500"><ele>78</ele><time>2007-08-18T07:01:40Z</time></trkpt>
<trkpt lat="48.47129300" lon="2.65869100"><ele>79</ele><time>2007-08-18T07:02:01Z</time></trkpt>
<trkpt lat="48.47155100" lon="2.65847700"><ele>74</ele><time>2007-08-18T07:02:21Z</time></trkpt>
<trkpt lat="48.47185100" lon="2.65826200"><ele>74</ele><time>2007-08-18T07:02:41Z</time></trkpt>
<trkpt lat="48.47210900" lon="2.65802600"><ele>72</ele><time>2007-08-18T07:02:59Z</time></trkpt>
<trkpt lat="48.47236600" lon="2.65781200"><ele>80</ele><time>2007-08-18T07:03:18Z</time></trkpt>
<trkpt lat="48.47236600" lon="2.65781200"><ele>82</ele><time>2007-08-18T07:03:26Z</time></trkpt>
<trkpt lat="48.47238800" lon="2.65787600"><ele>85</ele><time>2007-08-18T07:03:34Z</time></trkpt>
<trkpt lat="48.47243100" lon="2.65774700"><ele>85</ele><time>2007-08-18T07:03:40Z</time></trkpt>
<trkpt lat="48.47268800" lon="2.65751100"><ele>84</ele><time>2007-08-18T07:04:00Z</time></trkpt>
<trkpt lat="48.47303100" lon="2.65727500"><ele>87</ele><time>2007-08-18T07:04:23Z</time></trkpt>
<trkpt lat="48.47333200" lon="2.65701800"><ele>88</ele><time>2007-08-18T07:04:44Z</time></trkpt>
<trkpt lat="48.47356800" lon="2.65682500"><ele>87</ele><time>2007-08-18T07:05:03Z</time></trkpt>
<trkpt lat="48.47358900" lon="2.65682500"><ele>85</ele><time>2007-08-18T07:05:10Z</time></trkpt>
<trkpt lat="48.47358900" lon="2.65691000"><ele>84</ele><time>2007-08-18T07:05:14Z</time></trkpt>
<trkpt lat="48.47358900" lon="2.65701800"><ele>84</ele><time>2007-08-18T07:05:28Z</time></trkpt>
<trkpt lat="48.47352500" lon="2.65740400"><ele>84</ele><time>2007-08-18T07:05:45Z</time></trkpt>
<trkpt lat="48.47350400" lon="2.65785500"><ele>88</ele><time>2007-08-18T07:06:04Z</time></trkpt>
<trkpt lat="48.47337500" lon="2.65828400"><ele>85</ele><time>2007-08-18T07:06:24Z</time></trkpt>
<trkpt lat="48.47339600" lon="2.65830500"><ele>85</ele><time>2007-08-18T07:06:28Z</time></trkpt>
<trkpt lat="48.47350400" lon="2.65837000"><ele>90</ele><time>2007-08-18T07:06:38Z</time></trkpt>
<trkpt lat="48.47382500" lon="2.65841200"><ele>86</ele><time>2007-08-18T07:06:57Z</time></trkpt>
<trkpt lat="48.47419000" lon="2.65839100"><ele>87</ele><time>2007-08-18T07:07:17Z</time></trkpt>
<trkpt lat="48.47453400" lon="2.65845500"><ele>88</ele><time>2007-08-18T07:07:37Z</time></trkpt>
<trkpt lat="48.47485500" lon="2.65847700"><ele>80</ele><time>2007-08-18T07:07:57Z</time></trkpt>
<trkpt lat="48.47511300" lon="2.65852000"><ele>82</ele><time>2007-08-18T07:08:20Z</time></trkpt>
<trkpt lat="48.47511300" lon="2.65852000"><ele>79</ele><time>2007-08-18T07:08:22Z</time></trkpt>
<trkpt lat="48.47519900" lon="2.65845500"><ele>82</ele><time>2007-08-18T07:08:29Z</time></trkpt>
<trkpt lat="48.47519900" lon="2.65843400"><ele>92</ele><time>2007-08-18T07:08:42Z</time></trkpt>
<trkpt lat="48.47517700" lon="2.65847700"><ele>89</ele><time>2007-08-18T07:08:59Z</time></trkpt>
<trkpt lat="48.47515600" lon="2.65854100"><ele>89</ele><time>2007-08-18T07:09:13Z</time></trkpt>
<trkpt lat="48.47522000" lon="2.65884200"><ele>92</ele><time>2007-08-18T07:09:36Z</time></trkpt>
<trkpt lat="48.47530600" lon="2.65882000"><ele>93</ele><time>2007-08-18T07:10:11Z</time></trkpt>
<trkpt lat="48.47543500" lon="2.65897000"><ele>93</ele><time>2007-08-18T07:10:28Z</time></trkpt>
<trkpt lat="48.47549900" lon="2.65899200"><ele>96</ele><time>2007-08-18T07:10:36Z</time></trkpt>
<trkpt lat="48.47552100" lon="2.65903500"><ele>91</ele><time>2007-08-18T07:10:38Z</time></trkpt>
<trkpt lat="48.47558500" lon="2.65901300"><ele>96</ele><time>2007-08-18T07:10:45Z</time></trkpt>
<trkpt lat="48.47588300" lon="2.65903100"><ele>82</ele><time>2007-08-18T07:11:06Z</time></trkpt>
<trkpt lat="48.47599600" lon="2.65882100"><ele>82</ele><time>2007-08-18T07:11:24Z</time></trkpt>
<trkpt lat="48.47621400" lon="2.65899100"><ele>82</ele><time>2007-08-18T07:13:28Z</time></trkpt>
<trkpt lat="48.47636600" lon="2.65904300"><ele>82</ele><time>2007-08-18T07:14:08Z</time></trkpt>
<trkpt lat="48.47648600" lon="2.65912100"><ele>74</ele><time>2007-08-18T07:14:11Z</time></trkpt>
<trkpt lat="48.47682600" lon="2.65943400"><ele>82</ele><time>2007-08-18T07:18:57Z</time></trkpt>
<trkpt lat="48.47706100" lon="2.65963800"><ele>82</ele><time>2007-08-18T07:23:22Z</time></trkpt>
<trkpt lat="48.47717900" lon="2.65977500"><ele>82</ele><time>2007-08-18T07:23:30Z</time></trkpt>
<trkpt lat="48.47695800" lon="2.66008600"><ele>94</ele><time>2007-08-18T07:23:51Z</time></trkpt>
<trkpt lat="48.47676500" lon="2.66030100"><ele>95</ele><time>2007-08-18T07:24:10Z</time></trkpt>
<trkpt lat="48.47648600" lon="2.66058000"><ele>98</ele><time>2007-08-18T07:24:30Z</time></trkpt>
<trkpt lat="48.47612100" lon="2.66092300"><ele>98</ele><time>2007-08-18T07:24:56Z</time></trkpt>
<trkpt lat="48.47595000" lon="2.66109500"><ele>101</ele><time>2007-08-18T07:25:13Z</time></trkpt>
<trkpt lat="48.47567100" lon="2.66113800"><ele>100</ele><time>2007-08-18T07:25:32Z</time></trkpt>
<trkpt lat="48.47524200" lon="2.66115900"><ele>99</ele><time>2007-08-18T07:25:58Z</time></trkpt>
<trkpt lat="48.47479100" lon="2.66109500"><ele>95</ele><time>2007-08-18T07:26:26Z</time></trkpt>
<trkpt lat="48.47434000" lon="2.66100900"><ele>92</ele><time>2007-08-18T07:26:54Z</time></trkpt>
<trkpt lat="48.47404000" lon="2.66096600"><ele>91</ele><time>2007-08-18T07:27:23Z</time></trkpt>
<trkpt lat="48.47367500" lon="2.66090200"><ele>90</ele><time>2007-08-18T07:27:46Z</time></trkpt>
<trkpt lat="48.47328900" lon="2.66090200"><ele>91</ele><time>2007-08-18T07:28:16Z</time></trkpt>
<trkpt lat="48.47279500" lon="2.66090200"><ele>91</ele><time>2007-08-18T07:28:39Z</time></trkpt>
<trkpt lat="48.47253800" lon="2.66090200"><ele>89</ele><time>2007-08-18T07:28:52Z</time></trkpt>
<trkpt lat="48.47249500" lon="2.66077300"><ele>89</ele><time>2007-08-18T07:29:00Z</time></trkpt>
<trkpt lat="48.47217300" lon="2.66083700"><ele>90</ele><time>2007-08-18T07:29:21Z</time></trkpt>
<trkpt lat="48.47157200" lon="2.66107300"><ele>89</ele><time>2007-08-18T07:29:54Z</time></trkpt>
<trkpt lat="48.47153000" lon="2.66113800"><ele>102</ele><time>2007-08-18T07:30:15Z</time></trkpt>
<trkpt lat="48.47129300" lon="2.66128800"><ele>100</ele><time>2007-08-18T07:30:42Z</time></trkpt>
<trkpt lat="48.47088600" lon="2.66143800"><ele>101</ele><time>2007-08-18T07:31:09Z</time></trkpt>
<trkpt lat="48.47037100" lon="2.66171700"><ele>99</ele><time>2007-08-18T07:31:45Z</time></trkpt>
<trkpt lat="48.47019900" lon="2.66182400"><ele>99</ele><time>2007-08-18T07:32:04Z</time></trkpt>
<trkpt lat="48.46983400" lon="2.66201700"><ele>103</ele><time>2007-08-18T07:32:31Z</time></trkpt>
<trkpt lat="48.46947000" lon="2.66236100"><ele>101</ele><time>2007-08-18T07:32:58Z</time></trkpt>
<trkpt lat="48.46936200" lon="2.66242500"><ele>99</ele><time>2007-08-18T07:33:08Z</time></trkpt>
<trkpt lat="48.46895500" lon="2.66264000"><ele>99</ele><time>2007-08-18T07:33:28Z</time></trkpt>
<trkpt lat="48.46869700" lon="2.66270400"><ele>99</ele><time>2007-08-18T07:33:51Z</time></trkpt>
<trkpt lat="48.46828900" lon="2.66291900"><ele>99</ele><time>2007-08-18T07:34:20Z</time></trkpt>
<trkpt lat="48.46788200" lon="2.66315500"><ele>95</ele><time>2007-08-18T07:34:46Z</time></trkpt>
<trkpt lat="48.46762400" lon="2.66336900"><ele>94</ele><time>2007-08-18T07:35:11Z</time></trkpt>
<trkpt lat="48.46713100" lon="2.66362700"><ele>95</ele><time>2007-08-18T07:35:40Z</time></trkpt>
<trkpt lat="48.46665900" lon="2.66388400"><ele>94</ele><time>2007-08-18T07:36:09Z</time></trkpt>
<trkpt lat="48.46638000" lon="2.66401300"><ele>92</ele><time>2007-08-18T07:36:25Z</time></trkpt>
<trkpt lat="48.46595000" lon="2.66424900"><ele>92</ele><time>2007-08-18T07:36:56Z</time></trkpt>
<trkpt lat="48.46558600" lon="2.66437800"><ele>90</ele><time>2007-08-18T07:37:15Z</time></trkpt>
<trkpt lat="48.46517800" lon="2.66463500"><ele>92</ele><time>2007-08-18T07:37:44Z</time></trkpt>
<trkpt lat="48.46451300" lon="2.66504300"><ele>92</ele><time>2007-08-18T07:38:24Z</time></trkpt>
<trkpt lat="48.46408400" lon="2.66506400"><ele>97</ele><time>2007-08-18T07:38:41Z</time></trkpt>
<trkpt lat="48.46348300" lon="2.66542900"><ele>92</ele><time>2007-08-18T07:39:14Z</time></trkpt>
<trkpt lat="48.46318200" lon="2.66551500"><ele>93</ele><time>2007-08-18T07:39:38Z</time></trkpt>
</trkseg></trk></gpx>